Time;durP1;ratioP1;P1;durP2;ratioP2;P2;SDS_P1;SDS_P2;PMS_P1;PMS_P2;Temp;Humidity;BMP_temperature;BMP_pressure;BME280_temperature;BME280_humidity;BME280_pressure;Samples;Min_cycle;Max_cycle;Signal;HPM_P1;HPM_P2
2020/11/01 00:02:06;;;;;;;3.14;2.84;;;;;;;19.95;60.93;100660.98;;;;-57
2020/11/01 00:05:06;;;;;;;3.29;2.99;;;;;;;19.94;60.91;100645.91;;;;-57
2020/11/01 00:08:06;;;;;;;4.39;3.07;;;;;;;19.93;60.96;100650.39;;;;-57
2020/11/01 00:11:06;;;;;;;3.53;3.09;;;;;;;19.92;61.00;100651.34;;;;-55
2020/11/01 00:14:06;;;;;;;5.23;3.10;;;;;;;19.91;61.02;100649.73;;;;-58
2020/11/01 00:17:06;;;;;;;3.67;3.03;;;;;;;19.90;60.99;100649.33;;;;-57
2020/11/01 00:20:06;;;;;;;3.35;3.00;;;;;;;19.90;61.01;100646.94;;;;-57
2020/11/01 00:23:06;;;;;;;3.31;2.97;;;;;;;19.88;61.01;100646.05;;;;-57
2020/11/01 00:26:06;;;;;;;3.31;2.99;;;;;;;19.88;61.01;100649.15;;;;-58
2020/11/01 00:29:06;;;;;;;3.29;2.99;;;;;;;19.88;60.97;100647.19;;;;-58
2020/11/01 00:32:06;;;;;;;3.56;3.01;;;;;;;19.87;61.05;100633.10;;;;-57
2020/11/01 00:35:07;;;;;;;3.43;3.13;;;;;;;19.86;61.02;100629.37;;;;-58
2020/11/01 00:38:06;;;;;;;3.40;3.10;;;;;;;19.85;60.98;100626.01;;;;-57
2020/11/01 00:41:06;;;;;;;3.15;2.85;;;;;;;19.85;61.01;100624.63;;;;-58
2020/11/01 00:44:06;;;;;;;3.98;3.15;;;;;;;19.84;61.02;100622.77;;;;-57
2020/11/01 00:47:06;;;;;;;3.23;2.93;;;;;;;19.83;61.04;100627.05;;;;-56
2020/11/01 00:50:06;;;;;;;3.20;2.90;;;;;;;19.82;61.04;100629.91;;;;-57
2020/11/01 00:53:06;;;;;;;3.19;2.89;;;;;;;19.81;61.00;100621.75;;;;-55
2020/11/01 00:56:06;;;;;;;3.00;2.80;;;;;;;19.81;61.06;100626.23;;;;-57
2020/11/01 00:59:06;;;;;;;3.25;2.95;;;;;;;19.80;60.98;100633.55;;;;-65
2020/11/01 01:02:06;;;;;;;3.69;3.04;;;;;;;19.79;61.00;100632.95;;;;-66
2020/11/01 01:05:06;;;;;;;3.42;2.98;;;;;;;19.79;61.07;100630.52;;;;-65
2020/11/01 01:08:06;;;;;;;3.17;2.87;;;;;;;19.79;61.01;100639.63;;;;-66
2020/11/01 01:11:06;;;;;;;3.01;2.77;;;;;;;19.77;61.01;100644.16;;;;-64
2020/11/01 01:14:06;;;;;;;4.07;2.76;;;;;;;19.77;61.07;100643.67;;;;-66
2020/11/01 01:17:06;;;;;;;3.47;3.17;;;;;;;19.76;61.10;100644.09;;;;-64
2020/11/01 01:20:06;;;;;;;3.19;2.89;;;;;;;19.76;61.09;100652.79;;;;-64
2020/11/01 01:23:06;;;;;;;3.22;2.92;;;;;;;19.75;61.03;100646.91;;;;-64
2020/11/01 01:26:06;;;;;;;3.95;3.06;;;;;;;19.74;61.10;100645.86;;;;-65
2020/11/01 01:29:06;;;;;;;3.13;2.83;;;;;;;19.74;61.06;100648.62;;;;-64
2020/11/01 01:32:06;;;;;;;3.14;2.86;;;;;;;19.74;61.11;100651.06;;;;-64
2020/11/01 01:35:06;;;;;;;3.31;3.01;;;;;;;19.73;61.10;100654.37;;;;-66
2020/11/01 01:38:06;;;;;;;3.24;2.94;;;;;;;19.73;61.12;100659.74;;;;-64
2020/11/01 01:41:06;;;;;;;3.14;2.89;;;;;;;19.73;61.11;100655.34;;;;-65
2020/11/01 01:44:06;;;;;;;3.09;2.79;;;;;;;19.72;61.04;100655.52;;;;-66
2020/11/01 01:47:06;;;;;;;3.12;2.82;;;;;;;19.71;61.05;100657.20;;;;-64
2020/11/01 01:50:06;;;;;;;3.09;2.79;;;;;;;19.71;61.09;100661.02;;;;-65
2020/11/01 01:53:06;;;;;;;3.21;2.91;;;;;;;19.70;61.12;100658.67;;;;-65
2020/11/01 01:56:06;;;;;;;3.29;2.99;;;;;;;19.69;61.14;100658.94;;;;-64
2020/11/01 01:59:06;;;;;;;3.09;2.79;;;;;;;19.69;61.08;100660.81;;;;-64
2020/11/01 02:02:06;;;;;;;3.45;2.81;;;;;;;19.67;61.16;100668.63;;;;-65
2020/11/01 02:05:06;;;;;;;3.31;3.01;;;;;;;19.68;61.08;100675.86;;;;-64
2020/11/01 02:08:06;;;;;;;3.01;2.81;;;;;;;19.66;61.16;100677.37;;;;-64
2020/11/01 02:11:06;;;;;;;3.15;2.86;;;;;;;19.65;61.15;100685.19;;;;-64
2020/11/01 02:14:06;;;;;;;2.90;2.70;;;;;;;19.65;61.18;100683.86;;;;-66
2020/11/01 02:17:06;;;;;;;3.06;2.76;;;;;;;19.65;61.16;100683.98;;;;-65
2020/11/01 02:20:06;;;;;;;3.47;2.92;;;;;;;19.63;61.12;100685.98;;;;-66
2020/11/01 02:23:06;;;;;;;2.82;2.59;;;;;;;19.63;61.10;100679.64;;;;-64
2020/11/01 02:26:06;;;;;;;3.01;2.79;;;;;;;19.63;61.12;100676.69;;;;-64
2020/11/01 02:29:06;;;;;;;3.03;2.79;;;;;;;19.63;61.10;100676.53;;;;-65
2020/11/01 02:32:06;;;;;;;2.99;2.67;;;;;;;19.61;61.17;100676.21;;;;-66
2020/11/01 02:35:06;;;;;;;3.01;2.71;;;;;;;19.61;61.14;100665.31;;;;-64
2020/11/01 02:38:06;;;;;;;2.83;2.63;;;;;;;19.61;61.17;100665.45;;;;-64
2020/11/01 02:41:06;;;;;;;3.15;2.82;;;;;;;19.60;61.13;100676.59;;;;-64
2020/11/01 02:44:06;;;;;;;3.00;2.70;;;;;;;19.60;61.12;100663.34;;;;-64
2020/11/01 02:47:06;;;;;;;3.25;2.95;;;;;;;19.60;61.18;100656.27;;;;-64
2020/11/01 02:50:06;;;;;;;3.17;2.90;;;;;;;19.59;61.16;100659.04;;;;-65
2020/11/01 02:53:06;;;;;;;2.84;2.64;;;;;;;19.59;61.23;100670.42;;;;-65
2020/11/01 02:56:06;;;;;;;2.86;2.59;;;;;;;19.59;61.22;100660.50;;;;-64
2020/11/01 02:59:06;;;;;;;2.85;2.62;;;;;;;19.58;61.23;100655.19;;;;-66
2020/11/01 03:02:06;;;;;;;3.05;2.76;;;;;;;19.58;61.25;100653.08;;;;-66
2020/11/01 03:05:06;;;;;;;3.07;2.79;;;;;;;19.58;61.19;100650.40;;;;-65
2020/11/01 03:08:06;;;;;;;2.87;2.60;;;;;;;19.57;61.17;100652.52;;;;-66
2020/11/01 03:11:06;;;;;;;2.93;2.73;;;;;;;19.57;61.26;100656.17;;;;-64
2020/11/01 03:14:06;;;;;;;2.99;2.69;;;;;;;19.57;61.17;100655.82;;;;-65
2020/11/01 03:17:06;;;;;;;2.84;2.62;;;;;;;19.56;61.22;100656.48;;;;-64
2020/11/01 03:20:06;;;;;;;3.19;2.90;;;;;;;19.55;61.29;100660.47;;;;-57
2020/11/01 03:23:06;;;;;;;2.87;2.63;;;;;;;19.55;61.20;100660.79;;;;-58
2020/11/01 03:26:06;;;;;;;3.02;2.72;;;;;;;19.55;61.28;100662.74;;;;-56
2020/11/01 03:29:06;;;;;;;2.71;2.51;;;;;;;19.54;61.24;100662.96;;;;-56
2020/11/01 03:32:06;;;;;;;2.94;2.74;;;;;;;19.54;61.26;100662.96;;;;-58
2020/11/01 03:35:06;;;;;;;2.75;2.55;;;;;;;19.53;61.35;100664.02;;;;-57
2020/11/01 03:38:06;;;;;;;2.88;2.68;;;;;;;19.53;61.30;100664.84;;;;-59
2020/11/01 03:41:06;;;;;;;2.86;2.66;;;;;;;19.53;61.33;100662.48;;;;-59
2020/11/01 03:44:06;;;;;;;2.73;2.53;;;;;;;19.52;61.31;100657.49;;;;-59
2020/11/01 03:47:06;;;;;;;2.93;2.64;;;;;;;19.52;61.25;100651.41;;;;-59
2020/11/01 03:50:06;;;;;;;3.18;2.88;;;;;;;19.51;61.33;100646.85;;;;-59
2020/11/01 03:53:06;;;;;;;3.62;2.54;;;;;;;19.51;61.35;100651.16;;;;-59
2020/11/01 03:56:06;;;;;;;2.99;2.69;;;;;;;19.50;61.25;100651.13;;;;-59
2020/11/01 03:59:06;;;;;;;2.65;2.45;;;;;;;19.50;61.27;100651.95;;;;-59
2020/11/01 04:02:06;;;;;;;2.85;2.65;;;;;;;19.49;61.31;100654.95;;;;-63
2020/11/01 04:05:06;;;;;;;3.08;2.79;;;;;;;19.48;61.35;100650.22;;;;-62
2020/11/01 04:08:06;;;;;;;2.95;2.72;;;;;;;19.48;61.39;100645.99;;;;-63
2020/11/01 04:11:06;;;;;;;2.70;2.50;;;;;;;19.48;61.31;100642.73;;;;-62
2020/11/01 04:14:06;;;;;;;2.71;2.51;;;;;;;19.48;61.31;100629.00;;;;-63
2020/11/01 04:17:06;;;;;;;2.98;2.68;;;;;;;19.48;61.38;100627.95;;;;-63
2020/11/01 04:20:06;;;;;;;2.81;2.61;;;;;;;19.47;61.36;100613.24;;;;-64
2020/11/01 04:23:06;;;;;;;2.69;2.49;;;;;;;19.47;61.34;100633.81;;;;-63
2020/11/01 04:26:06;;;;;;;2.69;2.49;;;;;;;19.47;61.34;100632.75;;;;-63
2020/11/01 04:29:05;;;;;;;2.94;2.53;;;;;;;19.47;61.33;100625.44;;;;-63
2020/11/01 04:32:06;;;;;;;2.87;2.66;;;;;;;19.46;61.37;100626.39;;;;-63
2020/11/01 04:35:06;;;;;;;2.63;2.43;;;;;;;19.45;61.42;100632.81;;;;-57
2020/11/01 04:38:06;;;;;;;2.79;2.57;;;;;;;19.46;61.41;100638.74;;;;-57
2020/11/01 04:41:06;;;;;;;2.98;2.69;;;;;;;19.46;61.37;100633.37;;;;-56
2020/11/01 04:44:06;;;;;;;2.84;2.64;;;;;;;19.45;61.36;100626.95;;;;-55
2020/11/01 04:47:06;;;;;;;2.90;2.70;;;;;;;19.44;61.40;100621.11;;;;-56
2020/11/01 04:50:06;;;;;;;2.75;2.55;;;;;;;19.44;61.37;100624.50;;;;-58
2020/11/01 04:53:06;;;;;;;2.63;2.43;;;;;;;19.44;61.39;100627.18;;;;-58
2020/11/01 04:56:06;;;;;;;2.83;2.63;;;;;;;19.44;61.36;100628.27;;;;-55
2020/11/01 04:59:06;;;;;;;2.86;2.65;;;;;;;19.43;61.41;100612.06;;;;-56
2020/11/01 05:02:06;;;;;;;2.67;2.47;;;;;;;19.44;61.39;100614.83;;;;-57
2020/11/01 05:05:06;;;;;;;2.75;2.55;;;;;;;19.42;61.47;100616.59;;;;-58
2020/11/01 05:08:06;;;;;;;2.77;2.57;;;;;;;19.42;61.40;100618.17;;;;-58
2020/11/01 05:11:06;;;;;;;2.69;2.49;;;;;;;19.42;61.43;100617.00;;;;-58
2020/11/01 05:14:06;;;;;;;2.81;2.61;;;;;;;19.42;61.44;100619.52;;;;-56
2020/11/01 05:17:05;;;;;;;2.99;2.69;;;;;;;19.41;61.42;100617.73;;;;-56
2020/11/01 05:20:06;;;;;;;2.69;2.49;;;;;;;19.41;61.48;100612.86;;;;-56
2020/11/01 05:23:06;;;;;;;2.65;2.45;;;;;;;19.41;61.40;100614.00;;;;-59
2020/11/01 05:26:06;;;;;;;2.63;2.43;;;;;;;19.40;61.44;100609.86;;;;-59
2020/11/01 05:29:06;;;;;;;2.67;2.47;;;;;;;19.40;61.39;100603.84;;;;-59
2020/11/01 05:32:06;;;;;;;2.71;2.51;;;;;;;19.40;61.40;100601.41;;;;-59
2020/11/01 05:35:06;;;;;;;2.60;2.39;;;;;;;19.40;61.47;100601.89;;;;-59
2020/11/01 05:38:06;;;;;;;2.62;2.42;;;;;;;19.39;61.45;100604.55;;;;-59
2020/11/01 05:41:06;;;;;;;2.70;2.50;;;;;;;19.39;61.49;100608.38;;;;-59
2020/11/01 05:44:06;;;;;;;2.61;2.41;;;;;;;19.39;61.41;100606.34;;;;-58
2020/11/01 05:47:06;;;;;;;2.47;2.27;;;;;;;19.39;61.46;100605.77;;;;-59
2020/11/01 05:50:06;;;;;;;2.80;2.60;;;;;;;19.39;61.44;100600.16;;;;-59
2020/11/01 05:53:06;;;;;;;2.57;2.37;;;;;;;19.38;61.47;100592.83;;;;-58
2020/11/01 05:56:06;;;;;;;2.77;2.57;;;;;;;19.37;61.45;100590.55;;;;-59
2020/11/01 05:59:06;;;;;;;2.73;2.53;;;;;;;19.37;61.46;100587.62;;;;-59
2020/11/01 06:02:06;;;;;;;2.70;2.49;;;;;;;19.38;61.43;100591.28;;;;-59
2020/11/01 06:05:06;;;;;;;2.61;2.41;;;;;;;19.37;61.51;100596.25;;;;-64
2020/11/01 06:08:06;;;;;;;2.71;2.51;;;;;;;19.36;61.44;100600.15;;;;-58
2020/11/01 06:11:06;;;;;;;2.54;2.34;;;;;;;19.36;61.46;100596.41;;;;-57
2020/11/01 06:14:06;;;;;;;2.70;2.50;;;;;;;19.36;61.47;100599.47;;;;-56
2020/11/01 06:17:06;;;;;;;2.50;2.30;;;;;;;19.36;61.44;100608.20;;;;-57
2020/11/01 06:20:06;;;;;;;2.71;2.41;;;;;;;19.37;61.47;100604.70;;;;-56
2020/11/01 06:23:05;;;;;;;2.57;2.37;;;;;;;19.37;61.47;100600.39;;;;-58
2020/11/01 06:26:06;;;;;;;2.44;2.24;;;;;;;19.37;61.40;100591.29;;;;-58
2020/11/01 06:29:05;;;;;;;2.64;2.44;;;;;;;19.38;61.45;100586.57;;;;-56
2020/11/01 06:32:06;;;;;;;2.41;2.21;;;;;;;19.39;61.42;100587.98;;;;-55
2020/11/01 06:35:06;;;;;;;2.57;2.32;;;;;;;19.40;61.37;100591.81;;;;-58
2020/11/01 06:38:05;;;;;;;2.56;2.36;;;;;;;19.41;61.33;100596.04;;;;-59
2020/11/01 06:41:06;;;;;;;2.51;2.22;;;;;;;19.43;61.40;100599.63;;;;-58
2020/11/01 06:44:06;;;;;;;2.51;2.31;;;;;;;19.44;61.32;100593.05;;;;-57
2020/11/01 06:47:06;;;;;;;2.37;2.17;;;;;;;19.44;61.39;100590.77;;;;-58
2020/11/01 06:50:06;;;;;;;2.53;2.33;;;;;;;19.45;61.32;100603.72;;;;-56
2020/11/01 06:53:06;;;;;;;2.49;2.29;;;;;;;19.46;61.36;100605.58;;;;-56
2020/11/01 06:56:06;;;;;;;2.47;2.27;;;;;;;19.46;61.28;100606.23;;;;-58
2020/11/01 06:59:06;;;;;;;2.31;2.11;;;;;;;19.47;61.34;100603.82;;;;-56
2020/11/01 07:02:06;;;;;;;2.45;2.25;;;;;;;19.48;61.28;100610.55;;;;-58
2020/11/01 07:05:06;;;;;;;2.44;2.24;;;;;;;19.48;61.35;100614.78;;;;-57
2020/11/01 07:08:06;;;;;;;2.43;2.23;;;;;;;19.49;61.29;100600.25;;;;-56
2020/11/01 07:11:06;;;;;;;2.43;2.23;;;;;;;19.49;61.22;100596.35;;;;-58
2020/11/01 07:14:06;;;;;;;2.50;2.30;;;;;;;19.50;61.30;100598.30;;;;-55
2020/11/01 07:17:05;;;;;;;2.31;2.11;;;;;;;19.50;61.26;100606.19;;;;-57
2020/11/01 07:20:06;;;;;;;2.45;2.25;;;;;;;19.50;61.30;100602.85;;;;-57
2020/11/01 07:23:06;;;;;;;2.28;2.09;;;;;;;19.51;61.24;100598.97;;;;-65
2020/11/01 07:26:05;;;;;;;2.47;2.21;;;;;;;19.52;61.21;100595.48;;;;-64
2020/11/01 07:29:06;;;;;;;2.31;2.11;;;;;;;19.52;61.30;100598.97;;;;-66
2020/11/01 07:32:06;;;;;;;2.33;2.13;;;;;;;19.52;61.27;100601.00;;;;-65
2020/11/01 07:35:06;;;;;;;2.40;2.20;;;;;;;19.52;61.22;100608.31;;;;-65
2020/11/01 07:38:06;;;;;;;2.34;2.17;;;;;;;19.52;61.24;100599.22;;;;-65
2020/11/01 07:41:06;;;;;;;2.31;2.11;;;;;;;19.52;61.26;100600.52;;;;-65
2020/11/01 07:44:06;;;;;;;2.29;2.09;;;;;;;19.52;61.27;100597.99;;;;-64
2020/11/01 07:47:06;;;;;;;2.34;2.14;;;;;;;19.52;61.26;100591.90;;;;-64
2020/11/01 07:50:05;;;;;;;2.40;2.20;;;;;;;19.51;61.26;100588.89;;;;-64
2020/11/01 07:53:06;;;;;;;2.40;2.20;;;;;;;19.52;61.24;100589.45;;;;-65
2020/11/01 07:56:06;;;;;;;2.41;2.21;;;;;;;19.51;61.24;100587.11;;;;-64
2020/11/01 07:59:05;;;;;;;2.55;2.35;;;;;;;19.51;61.24;100587.59;;;;-65
2020/11/01 08:02:06;;;;;;;2.25;2.05;;;;;;;19.51;61.19;100587.27;;;;-64
2020/11/01 08:05:06;;;;;;;2.41;2.21;;;;;;;19.51;61.27;100584.91;;;;-66
2020/11/01 08:08:06;;;;;;;2.28;2.09;;;;;;;19.51;61.27;100574.99;;;;-65
2020/11/01 08:11:06;;;;;;;2.50;2.30;;;;;;;19.51;61.27;100563.94;;;;-65
2020/11/01 08:14:05;;;;;;;2.40;2.20;;;;;;;19.52;61.30;100571.66;;;;-66
2020/11/01 08:17:06;;;;;;;2.40;2.20;;;;;;;19.51;61.29;100573.86;;;;-64
2020/11/01 08:20:06;;;;;;;2.38;2.18;;;;;;;19.52;61.24;100570.61;;;;-66
2020/11/01 08:23:06;;;;;;;2.38;2.18;;;;;;;19.51;61.24;100572.47;;;;-64
2020/11/01 08:26:06;;;;;;;2.31;2.11;;;;;;;19.51;61.25;100581.74;;;;-67
2020/11/01 08:29:05;;;;;;;2.34;2.14;;;;;;;19.51;61.24;100581.41;;;;-65
2020/11/01 08:32:05;;;;;;;2.30;2.10;;;;;;;19.51;61.25;100583.69;;;;-64
2020/11/01 08:35:06;;;;;;;2.22;2.02;;;;;;;19.52;61.24;100591.25;;;;-65
2020/11/01 08:38:05;;;;;;;2.29;2.09;;;;;;;19.51;61.29;100599.78;;;;-67
2020/11/01 08:41:06;;;;;;;2.21;2.06;;;;;;;19.51;61.24;100609.38;;;;-65
2020/11/01 08:44:06;;;;;;;2.30;2.10;;;;;;;19.51;61.30;100610.35;;;;-64
2020/11/01 08:47:05;;;;;;;2.49;2.29;;;;;;;19.51;61.26;100611.90;;;;-65
2020/11/01 08:50:06;;;;;;;2.09;1.99;;;;;;;19.51;61.27;100615.06;;;;-65
2020/11/01 08:53:05;;;;;;;2.28;2.10;;;;;;;19.51;61.31;100608.73;;;;-66
2020/11/01 08:56:06;;;;;;;2.25;2.07;;;;;;;19.52;61.27;100610.92;;;;-65
2020/11/01 08:59:06;;;;;;;2.43;2.23;;;;;;;19.50;61.26;100610.33;;;;-66
2020/11/01 09:02:05;;;;;;;2.20;2.00;;;;;;;19.51;61.25;100613.03;;;;-59
2020/11/01 09:05:06;;;;;;;2.32;2.12;;;;;;;19.51;61.30;100611.66;;;;-59
2020/11/01 09:08:06;;;;;;;2.01;1.91;;;;;;;19.51;61.27;100615.94;;;;-59
2020/11/01 09:11:05;;;;;;;2.34;2.14;;;;;;;19.51;61.46;100606.05;;;;-51
2020/11/01 09:14:06;;;;;;;5.39;1.98;;;;;;;19.52;61.94;100600.43;;;;-51
2020/11/01 09:17:05;;;;;;;2.11;2.01;;;;;;;19.54;61.98;100599.63;;;;-52
2020/11/01 09:20:06;;;;;;;2.59;1.91;;;;;;;19.56;61.91;100598.11;;;;-51
2020/11/01 09:23:06;;;;;;;2.18;2.03;;;;;;;19.58;61.95;100595.45;;;;-50
2020/11/01 09:26:05;;;;;;;2.15;1.95;;;;;;;19.60;62.01;100593.10;;;;-50
2020/11/01 09:29:06;;;;;;;2.23;2.03;;;;;;;19.61;62.08;100583.50;;;;-50
2020/11/01 09:32:06;;;;;;;2.27;2.07;;;;;;;19.63;61.94;100577.20;;;;-52
2020/11/01 09:35:05;;;;;;;4.77;2.30;;;;;;;19.63;62.25;100574.69;;;;-52
2020/11/01 09:38:06;;;;;;;11.22;2.61;;;;;;;19.66;62.28;100579.17;;;;-59
2020/11/01 09:41:05;;;;;;;4.65;2.36;;;;;;;19.69;62.42;100580.40;;;;-58
2020/11/01 09:44:06;;;;;;;6.80;2.16;;;;;;;19.68;62.28;100577.88;;;;-50
2020/11/01 09:47:06;;;;;;;4.42;2.32;;;;;;;19.71;62.47;100572.40;;;;-57
2020/11/01 09:50:05;;;;;;;3.66;2.30;;;;;;;19.72;62.42;100574.61;;;;-60
2020/11/01 09:53:06;;;;;;;3.97;2.22;;;;;;;19.73;62.48;100572.00;;;;-52
2020/11/01 09:56:06;;;;;;;4.73;2.30;;;;;;;19.73;62.16;100573.39;;;;-51
2020/11/01 09:59:05;;;;;;;4.43;2.21;;;;;;;19.74;62.43;100577.63;;;;-54
2020/11/01 10:02:06;;;;;;;4.54;2.29;;;;;;;19.75;62.46;100574.78;;;;-58
2020/11/01 10:05:06;;;;;;;6.20;2.26;;;;;;;19.76;62.48;100569.44;;;;-59
2020/11/01 10:08:05;;;;;;;5.59;2.20;;;;;;;19.78;62.47;100573.77;;;;-58
2020/11/01 10:11:06;;;;;;;3.23;2.20;;;;;;;19.82;62.53;100569.64;;;;-58
2020/11/01 10:14:05;;;;;;;3.86;2.19;;;;;;;19.85;62.54;100568.27;;;;-57
2020/11/01 10:17:06;;;;;;;4.95;2.19;;;;;;;19.88;62.52;100560.58;;;;-61
2020/11/01 10:20:06;;;;;;;4.25;2.10;;;;;;;19.93;62.61;100560.20;;;;-60
2020/11/01 10:23:05;;;;;;;3.06;2.05;;;;;;;19.95;62.41;100562.07;;;;-65
2020/11/01 10:26:05;;;;;;;2.71;2.09;;;;;;;20.00;62.84;100559.00;;;;-53
2020/11/01 10:29:06;;;;;;;3.07;2.03;;;;;;;20.03;62.65;100550.33;;;;-59
2020/11/01 10:32:05;;;;;;;2.55;2.03;;;;;;;20.08;62.78;100542.45;;;;-54
2020/11/01 10:35:06;;;;;;;3.71;2.12;;;;;;;20.11;62.53;100538.25;;;;-57
2020/11/01 10:38:05;;;;;;;3.75;2.03;;;;;;;20.15;62.91;100534.69;;;;-59
2020/11/01 10:41:05;;;;;;;3.06;2.08;;;;;;;20.21;62.88;100536.65;;;;-55
2020/11/01 10:44:06;;;;;;;3.54;1.91;;;;;;;20.22;62.35;100535.61;;;;-56
2020/11/01 10:47:05;;;;;;;3.29;2.07;;;;;;;20.25;62.63;100533.68;;;;-49
2020/11/01 10:50:06;;;;;;;3.25;1.98;;;;;;;20.29;62.63;100534.52;;;;-48
2020/11/01 10:53:06;;;;;;;4.63;2.19;;;;;;;20.34;62.45;100534.05;;;;-54
2020/11/01 10:56:05;;;;;;;6.01;1.85;;;;;;;20.37;62.72;100531.77;;;;-61
2020/11/01 10:59:05;;;;;;;2.47;2.01;;;;;;;20.39;62.45;100528.75;;;;-59
2020/11/01 11:02:06;;;;;;;3.75;2.01;;;;;;;20.43;62.78;100517.70;;;;-56
2020/11/01 11:05:06;;;;;;;2.27;2.02;;;;;;;20.46;62.70;100515.77;;;;-65
2020/11/01 11:08:06;;;;;;;2.52;2.00;;;;;;;20.49;62.70;100515.84;;;;-66
2020/11/01 11:11:07;;;;;;;2.87;2.05;;;;;;;20.51;62.69;100511.78;;;;-54
2020/11/01 11:14:05;;;;;;;3.85;2.03;;;;;;;20.53;62.54;100508.62;;;;-53
2020/11/01 11:17:06;;;;;;;3.05;2.15;;;;;;;20.55;62.43;100512.78;;;;-52
2020/11/01 11:20:05;;;;;;;3.83;2.00;;;;;;;20.55;62.16;100504.39;;;;-52
2020/11/01 11:23:06;;;;;;;2.21;1.95;;;;;;;20.55;62.06;100497.87;;;;-52
2020/11/01 11:26:06;;;;;;;2.28;1.95;;;;;;;20.55;61.97;100498.36;;;;-53
2020/11/01 11:29:05;;;;;;;2.33;2.02;;;;;;;20.55;61.93;100502.35;;;;-52
2020/11/01 11:32:06;;;;;;;2.28;1.97;;;;;;;20.55;61.86;100495.75;;;;-53
2020/11/01 11:35:06;;;;;;;2.85;2.00;;;;;;;20.55;61.81;100491.03;;;;-53
2020/11/01 11:38:05;;;;;;;3.04;2.07;;;;;;;20.55;61.71;100485.17;;;;-53
2020/11/01 11:41:06;;;;;;;2.49;1.93;;;;;;;20.56;61.60;100479.88;;;;-52
2020/11/01 11:44:06;;;;;;;3.13;1.87;;;;;;;20.56;61.56;100476.45;;;;-52
2020/11/01 11:47:06;;;;;;;2.23;1.89;;;;;;;20.55;61.51;100477.68;;;;-52
2020/11/01 11:50:06;;;;;;;2.66;1.90;;;;;;;20.56;61.44;100475.97;;;;-52
2020/11/01 11:53:05;;;;;;;2.69;2.08;;;;;;;20.56;61.44;100472.95;;;;-56
2020/11/01 11:56:06;;;;;;;2.91;1.97;;;;;;;20.57;61.35;100486.73;;;;-56
2020/11/01 11:59:07;;;;;;;2.39;1.98;;;;;;;20.56;61.31;100484.50;;;;-57
2020/11/01 12:02:05;;;;;;;2.17;1.97;;;;;;;20.57;61.27;100468.00;;;;-57
2020/11/01 12:05:06;;;;;;;2.39;1.96;;;;;;;20.58;61.23;100468.75;;;;-58
2020/11/01 12:08:05;;;;;;;2.12;1.94;;;;;;;20.58;61.25;100461.83;;;;-57
2020/11/01 12:11:05;;;;;;;1.99;1.89;;;;;;;20.59;61.25;100465.67;;;;-57
2020/11/01 12:14:06;;;;;;;1.91;1.79;;;;;;;20.59;61.18;100471.53;;;;-65
2020/11/01 12:17:05;;;;;;;2.15;1.95;;;;;;;20.61;61.20;100475.27;;;;-64
2020/11/01 12:20:05;;;;;;;2.19;1.80;;;;;;;20.61;61.15;100465.66;;;;-65
2020/11/01 12:23:06;;;;;;;2.09;1.91;;;;;;;20.62;61.17;100465.19;;;;-57
2020/11/01 12:26:05;;;;;;;1.94;1.79;;;;;;;20.62;61.15;100456.55;;;;-58
2020/11/01 12:29:06;;;;;;;2.45;1.97;;;;;;;20.64;61.04;100458.02;;;;-58
2020/11/01 12:32:05;;;;;;;1.88;1.78;;;;;;;20.65;61.07;100459.96;;;;-64
2020/11/01 12:35:05;;;;;;;2.00;1.80;;;;;;;20.65;61.04;100449.64;;;;-52
2020/11/01 12:38:06;;;;;;;3.08;2.02;;;;;;;20.66;60.97;100456.07;;;;-57
2020/11/01 12:41:05;;;;;;;2.02;1.81;;;;;;;20.65;60.94;100445.89;;;;-52
2020/11/01 12:44:06;;;;;;;2.37;1.65;;;;;;;20.67;60.99;100455.67;;;;-57
2020/11/01 12:47:05;;;;;;;2.03;1.83;;;;;;;20.67;60.97;100449.80;;;;-65
2020/11/01 12:50:05;;;;;;;1.80;1.70;;;;;;;20.68;60.86;100442.88;;;;-52
2020/11/01 12:53:06;;;;;;;1.85;1.72;;;;;;;20.68;60.94;100435.23;;;;-53
2020/11/01 12:56:05;;;;;;;1.98;1.80;;;;;;;20.68;60.87;100428.38;;;;-52
2020/11/01 12:59:06;;;;;;;1.95;1.67;;;;;;;20.68;60.86;100424.47;;;;-59
2020/11/01 13:02:06;;;;;;;2.09;1.83;;;;;;;20.68;60.91;100423.41;;;;-58
2020/11/01 13:05:05;;;;;;;1.93;1.70;;;;;;;20.68;60.86;100419.98;;;;-57
2020/11/01 13:08:05;;;;;;;1.80;1.70;;;;;;;20.69;60.86;100420.17;;;;-66
2020/11/01 13:11:05;;;;;;;1.99;1.80;;;;;;;20.70;60.90;100418.30;;;;-56
2020/11/01 13:14:05;;;;;;;1.95;1.79;;;;;;;20.69;60.85;100414.80;;;;-59
2020/11/01 13:17:06;;;;;;;2.54;1.79;;;;;;;20.69;60.86;100412.35;;;;-59
2020/11/01 13:20:05;;;;;;;18.22;2.25;;;;;;;20.73;62.02;100407.64;;;;-59
2020/11/01 13:23:05;;;;;;;5.21;1.87;;;;;;;20.75;62.65;100407.69;;;;-56
2020/11/01 13:26:06;;;;;;;3.79;2.01;;;;;;;20.77;62.76;100409.43;;;;-56
2020/11/01 13:29:05;;;;;;;4.20;1.97;;;;;;;20.80;62.73;100408.85;;;;-58
2020/11/01 13:32:06;;;;;;;2.81;1.87;;;;;;;20.82;62.92;100403.55;;;;-53
2020/11/01 13:35:06;;;;;;;4.51;1.89;;;;;;;20.81;62.22;100402.41;;;;-50
2020/11/01 13:38:06;;;;;;;5.25;1.89;;;;;;;20.81;62.00;100398.00;;;;-56
2020/11/01 13:41:06;;;;;;;5.77;2.11;;;;;;;20.81;61.95;100403.63;;;;-62
2020/11/01 13:44:06;;;;;;;4.99;2.01;;;;;;;20.82;61.79;100401.85;;;;-60
2020/11/01 13:47:06;;;;;;;2.21;1.81;;;;;;;20.83;61.94;100399.31;;;;-60
2020/11/01 13:50:05;;;;;;;4.35;1.91;;;;;;;20.83;61.96;100386.11;;;;-58
2020/11/01 13:53:06;;;;;;;4.78;2.04;;;;;;;20.83;61.64;100380.89;;;;-59
2020/11/01 13:56:05;;;;;;;3.53;1.83;;;;;;;20.82;61.40;100384.83;;;;-57
2020/11/01 13:59:05;;;;;;;4.78;2.09;;;;;;;20.81;61.32;100386.60;;;;-60
2020/11/01 14:02:06;;;;;;;3.51;2.01;;;;;;;20.80;61.29;100383.27;;;;-58
2020/11/01 14:05:05;;;;;;;3.02;1.98;;;;;;;20.80;61.26;100386.20;;;;-58
2020/11/01 14:08:05;;;;;;;5.89;2.21;;;;;;;20.79;61.25;100383.28;;;;-60
2020/11/01 14:11:05;;;;;;;3.68;1.99;;;;;;;20.79;61.23;100378.45;;;;-59
2020/11/01 14:14:05;;;;;;;3.96;2.03;;;;;;;20.79;61.17;100374.55;;;;-59
2020/11/01 14:17:06;;;;;;;4.06;1.95;;;;;;;20.79;61.16;100376.67;;;;-58
2020/11/01 14:20:06;;;;;;;2.51;1.77;;;;;;;20.78;61.09;100364.79;;;;-58
2020/11/01 14:23:05;;;;;;;2.51;1.90;;;;;;;20.77;61.14;100360.56;;;;-58
2020/11/01 14:26:06;;;;;;;4.23;1.82;;;;;;;20.77;61.09;100364.88;;;;-59
2020/11/01 14:29:05;;;;;;;3.27;2.01;;;;;;;20.77;61.10;100362.92;;;;-58
2020/11/01 14:32:05;;;;;;;5.22;1.99;;;;;;;20.77;61.06;100359.41;;;;-59
2020/11/01 14:35:06;;;;;;;3.05;1.90;;;;;;;20.77;61.07;100367.05;;;;-60
2020/11/01 14:38:05;;;;;;;2.02;1.77;;;;;;;20.76;61.09;100360.96;;;;-60
2020/11/01 14:41:05;;;;;;;4.58;2.07;;;;;;;20.76;61.06;100364.22;;;;-58
2020/11/01 14:44:06;;;;;;;3.73;1.80;;;;;;;20.76;61.07;100361.29;;;;-58
2020/11/01 14:47:05;;;;;;;3.36;1.79;;;;;;;20.76;61.01;100354.69;;;;-58
2020/11/01 14:50:05;;;;;;;3.03;1.71;;;;;;;20.76;60.96;100348.83;;;;-58
2020/11/01 14:53:06;;;;;;;3.49;1.99;;;;;;;20.75;61.05;100350.62;;;;-57
2020/11/01 14:56:05;;;;;;;2.36;1.81;;;;;;;20.76;61.06;100352.98;;;;-58
2020/11/01 14:59:05;;;;;;;2.92;1.90;;;;;;;20.75;61.02;100350.69;;;;-59
2020/11/01 15:02:05;;;;;;;2.53;1.75;;;;;;;20.76;61.03;100351.92;;;;-59
2020/11/01 15:05:06;;;;;;;2.08;1.87;;;;;;;20.75;61.01;100351.12;;;;-59
2020/11/01 15:08:05;;;;;;;4.55;1.79;;;;;;;20.77;61.16;100354.92;;;;-59
2020/11/01 15:11:05;;;;;;;3.51;1.80;;;;;;;20.78;61.49;100353.30;;;;-60
2020/11/01 15:14:05;;;;;;;5.72;1.93;;;;;;;20.82;61.59;100354.45;;;;-59
2020/11/01 15:17:05;;;;;;;4.47;1.90;;;;;;;20.83;61.90;100351.58;;;;-59
2020/11/01 15:20:05;;;;;;;3.08;1.86;;;;;;;20.84;61.84;100356.41;;;;-57
2020/11/01 15:23:05;;;;;;;4.51;1.99;;;;;;;20.85;61.89;100355.00;;;;-54
2020/11/01 15:26:06;;;;;;;2.35;1.76;;;;;;;20.86;61.92;100346.30;;;;-57
2020/11/01 15:29:05;;;;;;;4.13;1.76;;;;;;;20.87;61.87;100356.13;;;;-58
2020/11/01 15:32:05;;;;;;;2.24;1.75;;;;;;;20.88;61.97;100351.58;;;;-56
2020/11/01 15:35:06;;;;;;;2.25;1.78;;;;;;;20.89;61.94;100358.17;;;;-57
2020/11/01 15:38:05;;;;;;;3.22;1.70;;;;;;;20.91;62.03;100362.40;;;;-60
2020/11/01 15:41:05;;;;;;;3.42;1.70;;;;;;;20.92;61.96;100365.92;;;;-57
2020/11/01 15:44:05;;;;;;;2.25;1.68;;;;;;;20.93;61.92;100367.28;;;;-52
2020/11/01 15:47:05;;;;;;;2.38;1.79;;;;;;;20.94;61.93;100369.50;;;;-51
2020/11/01 15:50:13;;;;;;;2.39;1.71;;;;;;;20.95;61.88;100367.05;;;;-51
2020/11/01 15:53:05;;;;;;;2.97;1.67;;;;;;;20.96;61.82;100368.92;;;;-52
2020/11/01 15:56:05;;;;;;;2.41;1.90;;;;;;;20.97;61.85;100367.12;;;;-53
2020/11/01 15:59:05;;;;;;;3.26;1.93;;;;;;;20.99;62.10;100368.35;;;;-54
2020/11/01 16:02:05;;;;;;;2.59;1.66;;;;;;;21.00;61.85;100364.04;;;;-52
2020/11/01 16:05:05;;;;;;;4.59;1.93;;;;;;;21.01;61.90;100365.66;;;;-56
2020/11/01 16:08:06;;;;;;;4.17;1.79;;;;;;;21.03;61.85;100358.66;;;;-56
2020/11/01 16:11:05;;;;;;;8.17;2.11;;;;;;;21.03;61.91;100362.97;;;;-53
2020/11/01 16:14:05;;;;;;;3.37;1.70;;;;;;;21.04;61.83;100367.59;;;;-58
2020/11/01 16:17:06;;;;;;;2.97;1.85;;;;;;;21.05;61.78;100367.94;;;;-56
2020/11/01 16:20:05;;;;;;;4.49;1.72;;;;;;;21.07;61.77;100373.55;;;;-58
2020/11/01 16:23:05;;;;;;;3.13;1.83;;;;;;;21.07;61.73;100362.31;;;;-62
2020/11/01 16:26:05;;;;;;;2.79;1.78;;;;;;;21.07;61.60;100357.67;;;;-58
2020/11/01 16:29:05;;;;;;;2.85;1.68;;;;;;;21.08;61.47;100359.76;;;;-53
2020/11/01 16:32:05;;;;;;;2.85;1.67;;;;;;;21.10;61.64;100357.16;;;;-51
2020/11/01 16:35:05;;;;;;;2.09;1.65;;;;;;;21.11;61.62;100352.36;;;;-52
2020/11/01 16:38:05;;;;;;;3.22;1.56;;;;;;;21.12;61.71;100354.86;;;;-56
2020/11/01 16:41:05;;;;;;;2.15;1.54;;;;;;;21.14;61.67;100357.89;;;;-60
2020/11/01 16:44:05;;;;;;;2.73;1.59;;;;;;;21.14;61.75;100348.66;;;;-56